Time;durP1;ratioP1;P1;durP2;ratioP2;P2;SDS_P1;SDS_P2;PMS_P1;PMS_P2;Temp;Humidity;BMP_temperature;BMP_pressure;BME280_temperature;BME280_humidity;BME280_pressure;Samples;Min_cycle;Max_cycle;Signal;HPM_P1;HPM_P2
2024/01/30 00:02:07;;;;;;;9.80;6.90;;;;;;;4.34;83.63;101778.17;180978;1257;44120;-81
2024/01/30 00:06:11;;;;;;;11.70;7.80;;;;;;;4.34;82.97;101777.80;181027;1257;43787;-81
2024/01/30 00:10:14;;;;;;;11.70;6.80;;;;;;;4.37;82.72;101780.02;181105;1259;60369;-81
2024/01/30 00:14:18;;;;;;;16.20;7.20;;;;;;;4.39;82.37;101778.70;181166;1257;44286;-81
2024/01/30 00:18:21;;;;;;;11.10;6.70;;;;;;;4.44;82.25;101777.30;181179;1257;44061;-81
2024/01/30 00:22:24;;;;;;;10.60;7.10;;;;;;;4.48;81.72;101775.44;181094;1257;43938;-81
2024/01/30 00:26:28;;;;;;;13.10;7.30;;;;;;;4.50;81.06;101768.16;181045;1257;44386;-82
2024/01/30 00:30:31;;;;;;;11.10;7.50;;;;;;;4.56;81.14;101767.64;181011;1257;58401;-81
2024/01/30 00:34:34;;;;;;;17.70;8.50;;;;;;;4.57;80.74;101763.20;181181;1257;44024;-80
2024/01/30 00:38:37;;;;;;;11.70;7.00;;;;;;;4.59;80.28;101762.27;181018;1257;44279;-80
2024/01/30 00:42:44;;;;;;;11.50;7.90;;;;;;;4.63;79.90;101765.96;180976;1258;43928;-81
2024/01/30 00:46:47;;;;;;;10.60;6.70;;;;;;;4.68;79.71;101766.35;181040;1258;44074;-81
2024/01/30 00:50:51;;;;;;;13.20;7.10;;;;;;;4.66;79.89;101768.17;181107;1257;59747;-80
2024/01/30 00:54:54;;;;;;;10.00;6.50;;;;;;;4.62;79.95;101771.09;181051;1258;43821;-81
2024/01/30 00:58:57;;;;;;;11.40;7.80;;;;;;;4.59;79.95;101766.63;181047;1257;44302;-81
2024/01/30 01:03:01;;;;;;;13.50;9.30;;;;;;;4.59;80.00;101769.09;181086;1256;43853;-80
2024/01/30 01:07:04;;;;;;;15.60;9.40;;;;;;;4.59;80.16;101767.70;181162;1256;43959;-80
2024/01/30 01:11:07;;;;;;;12.70;7.50;;;;;;;4.53;79.93;101769.13;181224;1256;58208;-80
2024/01/30 01:15:11;;;;;;;12.10;7.40;;;;;;;4.47;80.10;101762.83;181126;1256;44047;-80
2024/01/30 01:19:14;;;;;;;13.30;7.80;;;;;;;4.39;79.78;101758.48;181134;1256;43805;-80
2024/01/30 01:23:17;;;;;;;10.30;6.90;;;;;;;4.23;80.34;101751.63;181204;1256;44017;-80
2024/01/30 01:27:21;;;;;;;8.10;6.70;;;;;;;4.01;81.64;101756.00;181327;1256;43772;-80
2024/01/30 01:31:24;;;;;;;8.00;7.00;;;;;;;3.87;82.63;101754.48;181297;1256;59504;-80
2024/01/30 01:35:28;;;;;;;9.30;6.40;;;;;;;3.79;82.46;101755.09;181260;1256;43846;-80
2024/01/30 01:39:31;;;;;;;12.20;7.40;;;;;;;3.70;82.98;101752.17;181290;1257;44066;-80
2024/01/30 01:43:34;;;;;;;10.20;7.20;;;;;;;3.65;83.52;101753.91;181201;1256;44129;-80
2024/01/30 01:47:38;;;;;;;12.50;7.30;;;;;;;3.67;83.17;101757.52;181264;1256;43804;-80
2024/01/30 01:51:44;;;;;;;9.00;7.70;;;;;;;3.65;83.55;101748.13;181120;1256;59332;-80
2024/01/30 01:55:48;;;;;;;11.70;7.50;;;;;;;3.63;83.99;101751.16;181195;1256;43884;-80
2024/01/30 01:59:52;;;;;;;9.30;6.20;;;;;;;3.59;84.18;101746.52;181274;1256;43762;-79
2024/01/30 02:03:55;;;;;;;12.60;7.00;;;;;;;3.60;83.86;101746.86;181063;1256;44324;-80
2024/01/30 02:07:59;;;;;;;14.20;8.30;;;;;;;3.65;83.63;101750.92;181202;1256;44201;-80
2024/01/30 02:12:02;;;;;;;14.20;8.60;;;;;;;3.71;83.26;101751.64;181213;1256;59521;-80
2024/01/30 02:16:05;;;;;;;12.30;7.60;;;;;;;3.75;82.64;101749.23;181178;1256;44099;-80
2024/01/30 02:20:09;;;;;;;14.00;6.90;;;;;;;3.71;81.97;101750.39;181241;1256;43893;-80
2024/01/30 02:24:13;;;;;;;11.00;6.60;;;;;;;3.61;82.96;101749.99;181251;1256;44100;-80
2024/01/30 02:28:16;;;;;;;12.00;8.20;;;;;;;3.52;84.40;101748.84;181101;1256;43924;-80
2024/01/30 02:32:19;;;;;;;12.50;8.70;;;;;;;3.51;85.22;101750.10;181072;1256;57929;-80
2024/01/30 02:36:22;;;;;;;10.90;8.20;;;;;;;3.53;85.52;101746.16;181041;1256;43974;-79
2024/01/30 02:40:25;;;;;;;11.30;8.50;;;;;;;3.54;86.12;101744.91;181223;1256;43855;-79
2024/01/30 02:44:28;;;;;;;13.40;7.30;;;;;;;3.55;86.26;101744.88;181150;1256;43850;-79
2024/01/30 02:48:31;;;;;;;11.70;8.10;;;;;;;3.57;86.21;101749.05;181327;1256;44190;-79
2024/01/30 02:52:35;;;;;;;17.00;10.00;;;;;;;3.53;86.31;101745.12;181414;1256;59322;-79
2024/01/30 02:56:38;;;;;;;44.20;29.00;;;;;;;3.44;86.05;101736.77;181206;1256;44414;-80
2024/01/30 03:00:41;;;;;;;65.70;36.90;;;;;;;3.19;85.92;101737.65;181210;1256;44094;-80
2024/01/30 03:04:44;;;;;;;68.50;41.70;;;;;;;2.91;85.79;101738.56;181011;1256;43939;-80
2024/01/30 03:08:47;;;;;;;105.70;61.00;;;;;;;2.77;86.16;101744.90;181183;1256;43893;-79
2024/01/30 03:12:50;;;;;;;129.10;74.30;;;;;;;2.59;86.51;101743.41;181088;1256;59438;-79
2024/01/30 03:16:53;;;;;;;124.10;78.90;;;;;;;2.43;87.20;101746.42;181110;1256;44480;-80
2024/01/30 03:20:56;;;;;;;129.80;77.30;;;;;;;2.26;88.12;101758.75;181199;1256;44084;-79
2024/01/30 03:24:59;;;;;;;132.20;76.20;;;;;;;2.04;90.49;101760.11;181077;1256;206156;-79
2024/01/30 03:29:03;;;;;;;130.30;70.40;;;;;;;1.78;93.06;101761.03;181282;1256;44434;-79
2024/01/30 03:33:06;;;;;;;112.90;104.00;;;;;;;1.58;94.27;101764.59;181167;1256;59532;-80
2024/01/30 03:37:09;;;;;;;124.00;69.00;;;;;;;1.47;94.47;101759.37;181171;1256;43933;-79
2024/01/30 03:41:12;;;;;;;119.90;67.00;;;;;;;1.41;95.16;101759.48;181118;1256;44149;-79
2024/01/30 03:45:15;;;;;;;97.80;64.60;;;;;;;1.41;94.87;101757.05;181314;1256;43827;-79
2024/01/30 03:49:18;;;;;;;108.70;65.10;;;;;;;1.42;94.16;101754.05;181286;1256;44308;-79
2024/01/30 03:53:22;;;;;;;108.10;61.20;;;;;;;1.42;94.30;101743.92;181232;1256;60117;-79
2024/01/30 03:57:25;;;;;;;103.50;61.40;;;;;;;1.37;95.29;101745.95;181083;1256;43966;-77
2024/01/30 04:01:28;;;;;;;100.00;65.00;;;;;;;1.39;94.83;101744.85;181202;1256;46404;-78
2024/01/30 04:05:31;;;;;;;102.20;58.80;;;;;;;1.43;94.61;101742.49;181132;1256;44166;-79
2024/01/30 04:09:34;;;;;;;85.60;53.20;;;;;;;1.49;94.31;101742.56;181023;1256;43867;-78
2024/01/30 04:13:38;;;;;;;71.30;42.60;;;;;;;1.51;93.89;101743.23;181202;1257;57301;-77
2024/01/30 04:17:41;;;;;;;46.30;29.50;;;;;;;1.54;95.04;101735.28;181265;1256;43928;-77
2024/01/30 04:21:44;;;;;;;27.30;17.30;;;;;;;1.67;97.69;101736.42;181100;1256;44312;-77
2024/01/30 04:25:47;;;;;;;20.50;10.30;;;;;;;1.87;99.90;101737.40;181231;1256;44092;-79
2024/01/30 04:29:50;;;;;;;13.70;10.90;;;;;;;2.11;100.00;101738.24;181116;1256;44006;-79
2024/01/30 04:33:53;;;;;;;14.20;11.30;;;;;;;2.32;98.98;101730.93;181063;1256;59480;-79
2024/01/30 04:37:56;;;;;;;13.50;8.30;;;;;;;2.51;98.07;101727.33;181195;1256;44082;-78
2024/01/30 04:41:59;;;;;;;15.70;10.90;;;;;;;2.69;97.27;101730.02;181220;1256;43900;-78
2024/01/30 04:46:04;;;;;;;12.90;9.00;;;;;;;2.89;95.82;101737.38;181060;1256;44274;-78
2024/01/30 04:50:08;;;;;;;17.20;10.00;;;;;;;3.07;94.67;101736.56;181058;1256;44032;-78
2024/01/30 04:54:11;;;;;;;11.90;9.90;;;;;;;3.18;93.58;101730.66;181171;1256;59502;-79
2024/01/30 04:58:14;;;;;;;17.60;10.90;;;;;;;3.24;93.07;101733.49;181281;1256;44234;-79
2024/01/30 05:02:18;;;;;;;13.20;9.20;;;;;;;3.35;92.33;101738.98;181113;1256;43876;-79
2024/01/30 05:06:25;;;;;;;21.90;9.90;;;;;;;3.39;91.85;101737.98;181100;1256;44008;-77
2024/01/30 05:10:29;;;;;;;12.60;9.10;;;;;;;3.47;90.91;101737.41;181286;1256;43890;-77
2024/01/30 05:14:32;;;;;;;11.00;9.70;;;;;;;3.49;90.71;101737.16;181262;1256;57925;-77
2024/01/30 05:18:35;;;;;;;14.90;8.70;;;;;;;3.55;90.52;101738.39;181259;1256;44005;-77
2024/01/30 05:22:44;;;;;;;13.50;7.80;;;;;;;3.55;90.10;101734.20;181292;1256;43852;-78
2024/01/30 05:26:48;;;;;;;11.90;10.00;;;;;;;3.56;89.88;101736.45;181267;1256;44226;-77
2024/01/30 05:30:51;;;;;;;14.90;9.60;;;;;;;3.55;90.01;101731.73;181299;1257;43899;-78
2024/01/30 05:34:54;;;;;;;16.20;9.40;;;;;;;3.54;90.17;101732.11;181087;1256;59056;-78
2024/01/30 05:38:57;;;;;;;14.70;9.70;;;;;;;3.55;89.92;101729.27;181052;1256;44136;-78
2024/01/30 05:43:02;;;;;;;18.30;8.30;;;;;;;3.55;90.00;101731.57;181288;1256;44315;-78
2024/01/30 05:47:06;;;;;;;13.50;8.90;;;;;;;3.53;90.11;101729.16;181066;1256;43810;-79
2024/01/30 05:51:09;;;;;;;17.00;9.60;;;;;;;3.49;89.79;101729.98;181281;1256;43819;-79
2024/01/30 05:55:13;;;;;;;14.00;10.80;;;;;;;3.44;90.00;101728.38;181092;1256;59874;-79
2024/01/30 05:59:16;;;;;;;14.30;10.50;;;;;;;3.39;89.95;101727.30;181101;1256;44162;-79
2024/01/30 06:03:19;;;;;;;17.10;9.70;;;;;;;3.39;90.00;101729.56;181083;1256;44208;-78
2024/01/30 06:07:23;;;;;;;11.70;10.30;;;;;;;3.45;89.98;101733.27;181246;1257;44156;-78
2024/01/30 06:11:26;;;;;;;11.80;8.30;;;;;;;3.46;89.88;101740.77;181076;1256;44217;-78
2024/01/30 06:15:30;;;;;;;17.40;8.50;;;;;;;3.46;89.65;101748.48;181148;1256;59253;-78
2024/01/30 06:19:33;;;;;;;12.60;8.90;;;;;;;3.49;89.56;101754.70;181306;1256;44171;-78
2024/01/30 06:23:36;;;;;;;11.40;7.40;;;;;;;3.50;89.30;101746.76;181210;1256;44230;-78
2024/01/30 06:27:39;;;;;;;15.30;8.80;;;;;;;3.46;89.19;101740.94;181301;1256;44028;-78
2024/01/30 06:31:42;;;;;;;13.30;9.10;;;;;;;3.39;89.23;101740.45;181246;1256;44322;-78
2024/01/30 06:35:45;;;;;;;26.00;15.20;;;;;;;3.28;89.86;101744.58;181082;1256;60114;-79
2024/01/30 06:39:48;;;;;;;12.70;9.10;;;;;;;3.21;90.03;101744.45;181279;1256;43905;-78
2024/01/30 06:43:52;;;;;;;15.80;12.40;;;;;;;3.23;90.14;101744.39;181219;1256;44111;-79
2024/01/30 06:47:55;;;;;;;20.70;10.50;;;;;;;3.29;90.19;101747.55;181079;1256;43803;-79
2024/01/30 06:51:58;;;;;;;17.00;11.20;;;;;;;3.28;90.55;101751.06;181104;1256;43934;-79
2024/01/30 06:56:01;;;;;;;20.10;11.10;;;;;;;3.32;90.58;101753.24;181287;1260;60110;-79
2024/01/30 07:00:05;;;;;;;14.90;11.10;;;;;;;3.41;90.77;101746.14;181115;1256;43824;-79
2024/01/30 07:04:08;;;;;;;14.40;9.90;;;;;;;3.47;90.66;101744.23;181220;1259;45474;-78
2024/01/30 07:08:11;;;;;;;15.90;10.80;;;;;;;3.57;90.19;101748.52;181260;1256;44074;-80
2024/01/30 07:12:14;;;;;;;18.00;11.20;;;;;;;3.69;89.89;101748.88;181082;1260;44177;-79
2024/01/30 07:16:17;;;;;;;16.40;13.90;;;;;;;3.79;89.43;101751.39;181062;1256;58216;-78
2024/01/30 07:20:21;;;;;;;29.80;19.30;;;;;;;3.84;89.07;101758.41;181276;1256;43871;-78
2024/01/30 07:24:24;;;;;;;28.80;21.30;;;;;;;3.89;88.96;101757.58;181149;1256;44151;-79
2024/01/30 07:28:27;;;;;;;20.70;12.30;;;;;;;3.93;88.84;101755.53;181286;1257;44227;-78
2024/01/30 07:32:31;;;;;;;18.70;13.40;;;;;;;3.96;88.94;101752.11;181253;1256;43896;-78
2024/01/30 07:36:34;;;;;;;13.20;10.00;;;;;;;4.02;88.63;101760.00;181282;1260;59229;-78
2024/01/30 07:40:38;;;;;;;17.90;11.40;;;;;;;4.12;88.58;101759.17;181466;1256;43830;-79
2024/01/30 07:44:41;;;;;;;13.60;9.20;;;;;;;4.28;87.66;101757.96;181163;1256;44307;-79
2024/01/30 07:48:44;;;;;;;17.30;9.20;;;;;;;4.42;87.19;101758.92;181319;1256;44102;-79
2024/01/30 07:52:51;;;;;;;30.70;22.30;;;;;;;4.56;87.39;101761.30;181200;1256;44096;-79
2024/01/30 07:56:54;;;;;;;72.10;43.30;;;;;;;4.66;87.28;101761.32;181135;1256;58237;-79
2024/01/30 08:00:58;;;;;;;69.30;48.80;;;;;;;4.49;85.79;101757.31;181113;1257;44018;-79
2024/01/30 08:05:02;;;;;;;60.90;39.80;;;;;;;4.14;86.31;101756.15;181296;1257;44058;-79
2024/01/30 08:09:05;;;;;;;73.70;45.90;;;;;;;3.94;88.20;101766.56;181292;1260;44113;-79
2024/01/30 08:13:08;;;;;;;66.20;45.90;;;;;;;3.95;89.37;101760.39;181264;1256;43711;-79
2024/01/30 08:17:12;;;;;;;66.10;39.60;;;;;;;4.02;90.25;101757.71;181280;1256;59217;-79
2024/01/30 08:21:15;;;;;;;68.50;43.30;;;;;;;4.14;89.83;101755.59;181176;1256;44142;-79
2024/01/30 08:25:18;;;;;;;68.10;38.30;;;;;;;4.32;89.68;101753.80;181145;1256;44166;-79
2024/01/30 08:29:21;;;;;;;59.90;33.90;;;;;;;4.45;88.73;101756.20;181305;1256;43952;-79
2024/01/30 08:33:25;;;;;;;39.80;25.50;;;;;;;4.60;88.82;101746.05;181201;1257;43861;-79
2024/01/30 08:37:28;;;;;;;22.40;12.60;;;;;;;4.83;88.67;101737.91;181456;1256;57406;-78
2024/01/30 08:41:31;;;;;;;16.30;10.10;;;;;;;5.17;86.45;101735.48;181301;1256;44242;-79
2024/01/30 08:45:34;;;;;;;23.00;10.50;;;;;;;5.51;85.18;101738.83;181094;1256;44176;-79
2024/01/30 08:49:37;;;;;;;14.30;9.50;;;;;;;5.82;83.13;101740.52;181174;1260;44097;-79
2024/01/30 08:53:41;;;;;;;17.80;7.90;;;;;;;6.11;81.55;101740.46;181179;1257;43822;-79
2024/01/30 08:57:44;;;;;;;11.30;7.80;;;;;;;6.37;80.39;101737.98;181233;1257;57838;-79
2024/01/30 09:01:47;;;;;;;13.00;7.00;;;;;;;6.60;78.99;101728.96;181285;1257;44153;-78
2024/01/30 09:06:08;;;;;;;13.50;9.20;;;;;;;6.82;77.84;101726.45;181123;1258;43947;-79
2024/01/30 09:10:11;;;;;;;17.80;11.10;;;;;;;7.02;76.91;101723.66;181103;1259;44195;-79
2024/01/30 09:14:17;;;;;;;12.90;11.10;;;;;;;7.18;76.26;101721.36;181270;1257;44165;-79
2024/01/30 09:18:20;;;;;;;17.80;10.30;;;;;;;7.43;76.29;101711.27;181246;1260;59774;-79
2024/01/30 09:22:24;;;;;;;17.00;11.70;;;;;;;7.66;75.44;101711.80;181120;1257;43908;-79
2024/01/30 09:26:27;;;;;;;18.60;9.70;;;;;;;7.76;73.16;101708.84;181145;1257;44109;-79
2024/01/30 09:30:30;;;;;;;14.70;9.60;;;;;;;7.93;71.69;101701.36;181104;1257;43986;-79
2024/01/30 09:34:33;;;;;;;11.40;9.20;;;;;;;8.08;71.27;101700.84;181343;1257;46611;-79
2024/01/30 09:38:36;;;;;;;16.30;11.50;;;;;;;8.28;71.45;101704.77;181226;1257;58596;-79
2024/01/30 09:42:40;;;;;;;11.50;10.00;;;;;;;8.42;70.20;101700.02;181225;1257;44084;-79
2024/01/30 09:46:47;;;;;;;15.20;9.70;;;;;;;8.58;68.83;101698.90;181253;1259;43815;-79
2024/01/30 09:50:52;;;;;;;15.10;9.10;;;;;;;8.78;69.23;101695.06;181244;1258;44209;-79
2024/01/30 09:54:55;;;;;;;17.80;9.80;;;;;;;8.95;68.90;101691.55;181048;1257;44245;-79
2024/01/30 09:58:59;;;;;;;13.30;8.90;;;;;;;9.04;67.91;101695.86;180972;1257;59153;-79
2024/01/30 10:03:02;;;;;;;18.60;10.20;;;;;;;9.14;67.44;101689.66;181273;1257;43993;-79
2024/01/30 10:07:06;;;;;;;11.40;8.10;;;;;;;9.27;67.22;101683.65;181427;1256;43822;-79
2024/01/30 10:11:09;;;;;;;13.90;9.00;;;;;;;9.40;66.66;101680.66;181225;1257;43982;-79
2024/01/30 10:15:13;;;;;;;11.90;8.20;;;;;;;9.53;65.98;101676.79;181118;1258;44071;-79
2024/01/30 10:19:17;;;;;;;10.60;7.10;;;;;;;9.60;65.54;101677.44;181120;1257;58257;-79
2024/01/30 10:23:20;;;;;;;8.80;7.40;;;;;;;9.74;65.01;101668.02;181228;1257;44100;-79
2024/01/30 10:27:29;;;;;;;12.00;7.80;;;;;;;9.90;65.89;101667.13;181111;1256;44104;-78
2024/01/30 10:31:32;;;;;;;10.60;8.60;;;;;;;10.00;63.70;101659.28;181138;1257;44295;-79
2024/01/30 10:35:37;;;;;;;11.60;7.60;;;;;;;10.17;64.14;101648.59;181166;1258;43757;-78
2024/01/30 10:39:40;;;;;;;10.60;7.70;;;;;;;10.31;62.96;101645.48;181307;1256;58223;-79
2024/01/30 10:43:50;;;;;;;10.70;7.60;;;;;;;10.44;62.74;101641.33;181268;1256;44198;-79
2024/01/30 10:47:58;;;;;;;12.10;7.40;;;;;;;10.57;62.42;101639.50;181190;1258;43958;-79
2024/01/30 10:52:04;;;;;;;14.40;8.10;;;;;;;10.70;62.00;101628.83;181106;1257;44179;-79
2024/01/30 10:56:08;;;;;;;13.10;7.60;;;;;;;10.81;61.96;101626.34;181136;1257;43874;-79
2024/01/30 11:00:15;;;;;;;11.20;7.70;;;;;;;10.92;61.67;101625.85;181118;1257;59240;-79
2024/01/30 11:04:19;;;;;;;17.10;8.70;;;;;;;11.05;61.65;101623.63;181237;1257;43827;-79
2024/01/30 11:08:24;;;;;;;9.90;6.70;;;;;;;11.18;62.10;101615.39;181234;1257;44017;-79
2024/01/30 11:12:29;;;;;;;12.10;7.70;;;;;;;11.27;60.91;101611.23;181230;1257;44009;-79
2024/01/30 11:16:32;;;;;;;10.00;6.00;;;;;;;11.33;60.44;101602.19;181124;1256;43965;-79
2024/01/30 11:20:36;;;;;;;14.90;8.70;;;;;;;11.39;59.23;101597.19;181214;1257;58228;-79
2024/01/30 11:24:42;;;;;;;12.60;8.40;;;;;;;11.45;59.59;101599.65;181030;1257;44282;-79
2024/01/30 11:28:53;;;;;;;12.50;7.00;;;;;;;11.39;58.92;101599.17;181298;1256;43853;-79
2024/01/30 11:33:11;;;;;;;19.40;8.10;;;;;;;11.38;58.32;101595.09;181135;1256;44103;-79
2024/01/30 11:37:15;;;;;;;12.70;7.00;;;;;;;11.34;57.84;101592.70;181159;1256;43938;-79
2024/01/30 11:41:18;;;;;;;10.60;7.90;;;;;;;11.42;58.40;101586.55;181074;1257;58138;-79
2024/01/30 11:45:21;;;;;;;12.20;8.20;;;;;;;11.44;58.44;101586.75;181237;1257;44062;-79
2024/01/30 11:49:24;;;;;;;10.20;7.10;;;;;;;11.31;57.75;101582.78;181206;1256;44046;-79
2024/01/30 11:53:28;;;;;;;13.50;8.20;;;;;;;11.26;57.54;101575.08;181221;1257;44213;-78
2024/01/30 11:57:31;;;;;;;12.60;7.20;;;;;;;11.25;58.01;101568.92;181236;1257;44214;-79
2024/01/30 12:01:35;;;;;;;11.70;8.20;;;;;;;11.23;57.59;101563.93;181149;1256;58197;-79
2024/01/30 12:05:42;;;;;;;11.00;7.70;;;;;;;11.21;57.14;101554.98;181226;1256;43720;-79
2024/01/30 12:09:53;;;;;;;10.90;6.90;;;;;;;11.21;57.35;101556.42;181254;1256;44192;-79
2024/01/30 12:13:57;;;;;;;15.10;8.60;;;;;;;11.10;57.63;101550.59;181451;1256;43679;-79
2024/01/30 12:18:05;;;;;;;15.00;9.20;;;;;;;11.10;57.02;101543.65;181150;1256;43977;-78
2024/01/30 12:22:10;;;;;;;10.00;6.80;;;;;;;11.08;57.08;101539.50;181216;1256;59495;-78
2024/01/30 12:26:14;;;;;;;9.60;6.80;;;;;;;10.97;56.47;101535.91;181096;1256;44130;-79
2024/01/30 12:30:20;;;;;;;11.70;8.70;;;;;;;10.92;57.12;101535.33;181230;1256;44164;-80
2024/01/30 12:34:25;;;;;;;9.20;7.10;;;;;;;10.97;58.11;101527.92;181222;1257;44272;-79
2024/01/30 12:38:28;;;;;;;16.70;9.20;;;;;;;11.05;58.14;101521.23;181197;1257;44115;-79
2024/01/30 12:42:31;;;;;;;17.10;8.20;;;;;;;11.06;59.01;101516.16;181244;1256;58022;-79
2024/01/30 12:46:35;;;;;;;11.00;7.80;;;;;;;10.99;59.35;101514.66;181096;1256;44087;-79
2024/01/30 12:50:38;;;;;;;10.10;6.60;;;;;;;10.95;59.35;101509.39;181087;1257;44079;-79
2024/01/30 12:54:41;;;;;;;13.60;8.40;;;;;;;10.97;59.68;101512.33;181095;1256;43908;-80
2024/01/30 12:58:44;;;;;;;18.60;10.20;;;;;;;11.02;59.10;101510.58;181240;1256;44024;-80
2024/01/30 13:02:52;;;;;;;16.90;11.30;;;;;;;11.06;58.77;101509.77;181218;1256;59262;-80
2024/01/30 13:06:55;;;;;;;12.90;8.70;;;;;;;11.11;58.53;101510.36;181097;1257;44200;-79
2024/01/30 13:10:58;;;;;;;18.30;10.40;;;;;;;11.14;59.13;101512.99;181191;1256;43861;-79
2024/01/30 13:15:03;;;;;;;18.60;9.80;;;;;;;11.13;58.95;101515.89;181221;1256;44188;-79
2024/01/30 13:19:06;;;;;;;23.60;12.10;;;;;;;11.10;58.17;101516.84;181025;1258;43817;-79
2024/01/30 13:23:09;;;;;;;35.30;20.80;;;;;;;11.06;59.02;101519.55;181162;1256;59576;-79
2024/01/30 13:27:13;;;;;;;21.00;11.20;;;;;;;11.04;59.02;101520.45;181227;1256;44121;-79
2024/01/30 13:31:16;;;;;;;16.70;10.80;;;;;;;11.02;59.50;101520.18;181282;1256;44482;-79
2024/01/30 13:35:20;;;;;;;19.70;10.20;;;;;;;11.03;59.87;101518.52;181131;1256;44060;-79
2024/01/30 13:39:23;;;;;;;18.40;9.40;;;;;;;10.99;59.43;101520.86;181228;1256;44240;-79
2024/01/30 13:43:32;;;;;;;14.70;9.90;;;;;;;10.88;60.05;101515.88;181179;1256;59521;-79
2024/01/30 13:47:35;;;;;;;22.30;11.20;;;;;;;10.79;59.77;101514.85;181226;1256;43853;-79
2024/01/30 13:51:38;;;;;;;11.30;9.80;;;;;;;10.70;59.25;101508.17;181087;1257;44262;-79
2024/01/30 13:55:41;;;;;;;16.00;9.20;;;;;;;10.65;59.75;101510.42;181175;1257;43812;-79
2024/01/30 13:59:44;;;;;;;21.00;11.60;;;;;;;10.58;60.70;101507.64;181227;1256;44152;-79
2024/01/30 14:03:47;;;;;;;15.20;11.40;;;;;;;10.52;60.47;101507.68;181188;1256;59906;-79
2024/01/30 14:07:51;;;;;;;19.30;11.50;;;;;;;10.38;60.12;101508.48;181134;1256;43898;-79
2024/01/30 14:11:55;;;;;;;13.10;9.70;;;;;;;10.17;61.09;101506.90;181206;1256;44332;-79
2024/01/30 14:15:58;;;;;;;24.20;12.50;;;;;;;9.97;62.21;101502.10;181260;1256;44269;-79
2024/01/30 14:20:04;;;;;;;22.50;12.30;;;;;;;9.79;62.93;101504.21;181207;1256;44083;-79
2024/01/30 14:24:07;;;;;;;20.90;14.00;;;;;;;9.60;63.92;101505.67;181276;1257;59261;-80
2024/01/30 14:28:11;;;;;;;34.00;20.00;;;;;;;9.41;65.14;101500.36;181170;1256;43957;-79
2024/01/30 14:32:14;;;;;;;27.90;16.00;;;;;;;9.22;65.81;101504.79;181392;1256;44325;-79
2024/01/30 14:36:17;;;;;;;27.70;17.30;;;;;;;8.94;67.07;101506.87;181199;1256;43710;-79
2024/01/30 14:40:20;;;;;;;29.50;20.20;;;;;;;8.80;67.40;101501.30;181277;1256;44614;-79
2024/01/30 14:44:24;;;;;;;28.20;20.90;;;;;;;8.68;68.14;101498.41;181092;1256;58210;-79
2024/01/30 14:48:27;;;;;;;28.30;17.60;;;;;;;8.57;68.97;101503.20;181065;1256;44083;-79
2024/01/30 14:52:31;;;;;;;29.70;19.30;;;;;;;8.43;70.00;101504.14;181101;1257;44180;-79
2024/01/30 14:56:34;;;;;;;24.20;17.40;;;;;;;8.33;70.22;101501.80;181134;1256;43931;-79
2024/01/30 15:00:38;;;;;;;38.90;21.50;;;;;;;8.18;71.24;101503.81;181174;1257;44265;-79
2024/01/30 15:04:41;;;;;;;29.90;19.40;;;;;;;8.07;71.37;101505.64;181133;1256;58232;-79
2024/01/30 15:08:45;;;;;;;35.90;20.50;;;;;;;7.98;71.72;101506.64;181190;1256;43835;-79
2024/01/30 15:12:48;;;;;;;28.80;18.10;;;;;;;7.84;72.07;101509.79;181151;1256;44025;-79
2024/01/30 15:16:51;;;;;;;23.30;16.00;;;;;;;7.73;72.32;101510.35;181210;1256;43786;-79
2024/01/30 15:20:54;;;;;;;21.50;15.00;;;;;;;7.60;72.87;101514.15;181326;1256;44041;-79
2024/01/30 15:24:57;;;;;;;23.70;15.10;;;;;;;7.51;73.38;101514.60;181089;1256;59540;-80
2024/01/30 15:29:01;;;;;;;18.40;13.90;;;;;;;7.41;73.88;101517.19;181182;1256;43921;-83
2024/01/30 15:33:05;;;;;;;23.00;14.40;;;;;;;7.35;73.93;101517.82;181385;1256;43908;-81
2024/01/30 15:37:08;;;;;;;24.00;15.10;;;;;;;7.32;74.24;101513.77;181166;1256;44037;-82
2024/01/30 15:41:11;;;;;;;30.50;18.70;;;;;;;7.28;74.18;101512.70;181111;1256;44121;-85
2024/01/30 15:45:15;;;;;;;50.30;31.20;;;;;;;7.23;74.51;101510.30;181306;1256;59320;-84
2024/01/30 15:49:18;;;;;;;30.40;19.20;;;;;;;7.16;74.82;101507.83;181133;1256;43868;-85
2024/01/30 15:53:22;;;;;;;39.10;22.90;;;;;;;7.10;74.62;101514.27;181174;1256;43754;-85
2024/01/30 15:57:25;;;;;;;35.70;23.10;;;;;;;7.04;74.19;101524.77;181027;1257;44149;-79
2024/01/30 16:01:32;;;;;;;27.70;18.20;;;;;;;7.02;74.32;101534.06;181005;1257;44110;-78
2024/01/30 16:05:35;;;;;;;29.60;17.20;;;;;;;7.00;74.14;101543.31;181196;1257;59218;-79
2024/01/30 16:09:38;;;;;;;21.00;15.30;;;;;;;6.92;74.34;101537.85;181002;1257;44224;-79
2024/01/30 16:13:41;;;;;;;23.90;16.00;;;;;;;6.90;73.97;101531.46;180987;1257;44108;-78
2024/01/30 16:17:45;;;;;;;18.40;13.10;;;;;;;6.93;73.97;101539.94;181139;1257;44030;-78
2024/01/30 16:21:48;;;;;;;28.60;18.00;;;;;;;6.92;73.91;101536.63;181118;1257;43921;-78
2024/01/30 16:25:51;;;;;;;34.10;21.10;;;;;;;6.94;74.03;101537.25;181101;1257;58224;-76
2024/01/30 16:29:54;;;;;;;24.20;17.00;;;;;;;6.95;74.10;101540.72;181091;1257;44067;-76
2024/01/30 16:33:59;;;;;;;21.70;15.60;;;;;;;6.98;73.85;101540.05;181151;1256;44077;-76
2024/01/30 16:38:03;;;;;;;19.50;12.70;;;;;;;6.99;72.87;101536.83;181131;1257;44037;-76
2024/01/30 16:42:09;;;;;;;25.20;14.10;;;;;;;7.06;72.19;101540.75;181007;1257;44165;-75
2024/01/30 16:46:12;;;;;;;24.60;16.80;;;;;;;7.11;72.68;101543.70;181056;1257;59946;-76
2024/01/30 16:50:15;;;;;;;23.40;15.90;;;;;;;7.11;73.00;101547.23;181099;1257;44259;-76
2024/01/30 16:54:18;;;;;;;21.90;14.80;;;;;;;7.09;73.47;101559.68;181069;1257;44075;-77
2024/01/30 16:58:21;;;;;;;23.10;14.40;;;;;;;7.07;73.53;101563.46;181131;1257;44291;-77
2024/01/30 17:02:25;;;;;;;20.00;15.40;;;;;;;7.02;73.81;101553.79;181105;1257;44266;-77
2024/01/30 17:06:28;;;;;;;23.60;16.20;;;;;;;7.00;73.94;101558.13;181024;1257;57101;-77
2024/01/30 17:10:31;;;;;;;26.60;15.30;;;;;;;6.92;73.63;101547.02;181096;1257;44040;-76
2024/01/30 17:14:39;;;;;;;;;;;;;;;6.91;73.67;101543.55;181032;1257;44250;-76
2024/01/30 17:18:42;;;;;;;23.80;13.90;;;;;;;6.93;73.88;101544.52;181129;1257;43781;-76
2024/01/30 17:22:45;;;;;;;16.60;13.80;;;;;;;6.90;74.32;101548.53;181155;1257;44172;-77
2024/01/30 17:26:49;;;;;;;26.00;17.70;;;;;;;6.85;74.98;101545.39;181181;1257;59574;-76
2024/01/30 17:30:53;;;;;;;22.40;15.00;;;;;;;6.84;75.40;101549.31;181137;1257;43809;-76
2024/01/30 17:34:56;;;;;;;30.40;19.70;;;;;;;6.74;75.98;101536.41;181217;1257;44062;-77
2024/01/30 17:39:00;;;;;;;51.40;29.80;;;;;;;6.67;76.62;101527.34;181065;1257;44016;-76
2024/01/30 17:43:06;;;;;;;27.50;14.40;;;;;;;6.69;76.33;101526.92;181173;1257;43894;-77
2024/01/30 17:47:09;;;;;;;20.30;14.60;;;;;;;6.68;75.86;101525.34;181156;1257;58269;-76
2024/01/30 17:51:12;;;;;;;22.60;14.80;;;;;;;6.73;75.88;101520.55;181168;1257;43997;-77
2024/01/30 17:55:16;;;;;;;20.70;14.80;;;;;;;6.74;75.99;101535.15;181233;1257;43887;-77
2024/01/30 17:59:21;;;;;;;22.60;16.10;;;;;;;6.71;75.85;101534.59;181110;1257;44284;-77
2024/01/30 18:03:24;;;;;;;26.50;15.00;;;;;;;6.67;76.26;101538.27;181074;1257;43945;-77
2024/01/30 18:07:27;;;;;;;22.50;15.80;;;;;;;6.64;76.28;101530.86;181087;1257;58000;-78
2024/01/30 18:11:30;;;;;;;20.60;13.90;;;;;;;6.62;76.52;101539.23;181181;1257;44069;-77
2024/01/30 18:15:34;;;;;;;25.50;15.60;;;;;;;6.59;76.57;101544.27;181150;1257;44014;-78
2024/01/30 18:19:37;;;;;;;22.40;14.40;;;;;;;6.49;77.08;101535.23;181121;1257;43988;-78
2024/01/30 18:23:40;;;;;;;20.40;15.20;;;;;;;6.42;77.15;101535.67;181144;1257;43910;-77
2024/01/30 18:27:43;;;;;;;23.00;15.80;;;;;;;6.38;77.31;101541.84;181080;1257;58384;-77
2024/01/30 18:31:46;;;;;;;21.10;14.60;;;;;;;6.31;78.05;101540.94;181190;1257;44041;-77